createdAt,value
2022-09-18T00:01:19.547Z,9.75
2022-09-18T00:03:48.123Z,9.72
2022-09-18T00:06:17.707Z,9.71
2022-09-18T00:08:49.576Z,9.68
2022-09-18T00:11:17.833Z,9.66
2022-09-18T00:13:46.151Z,9.64
2022-09-18T00:16:16.563Z,9.58
2022-09-18T00:18:45.296Z,9.54
2022-09-18T00:21:15.649Z,9.50
2022-09-18T00:23:44.760Z,9.48
2022-09-18T00:26:16.161Z,9.51
2022-09-18T00:28:44.823Z,9.52
2022-09-18T00:31:15.487Z,9.55
2022-09-18T00:33:44.070Z,9.57
2022-09-18T00:36:14.103Z,9.56
2022-09-18T00:38:42.803Z,9.57
2022-09-18T00:41:15.068Z,9.56
2022-09-18T00:43:43.331Z,9.57
2022-09-18T00:46:24.045Z,9.55
2022-09-18T00:49:02.763Z,9.53
2022-09-18T00:51:32.903Z,9.58
2022-09-18T00:54:07.515Z,9.57
2022-09-18T00:56:37.124Z,9.58
2022-09-18T00:59:05.602Z,9.61
2022-09-18T01:01:33.610Z,9.63
2022-09-18T01:04:01.818Z,9.59
2022-09-18T01:06:39.514Z,9.60
2022-09-18T01:09:27.745Z,9.60
2022-09-18T01:12:07.374Z,9.59
2022-09-18T01:14:42.232Z,9.64
2022-09-18T01:17:19.529Z,9.61
2022-09-18T01:20:05.951Z,9.59
2022-09-18T01:22:48.554Z,9.57
2022-09-18T01:25:22.996Z,9.55
2022-09-18T01:28:08.442Z,9.53
2022-09-18T01:30:42.579Z,9.52
2022-09-18T01:33:18.973Z,9.54
2022-09-18T01:35:50.491Z,9.56
2022-09-18T01:38:24.534Z,9.56
2022-09-18T01:40:57.735Z,9.56
2022-09-18T01:43:31.078Z,9.56
2022-09-18T01:46:04.903Z,9.52
2022-09-18T01:48:41.437Z,9.48
2022-09-18T01:51:15.008Z,9.55
2022-09-18T01:53:49.171Z,9.62
2022-09-18T01:56:20.863Z,9.57
2022-09-18T01:58:53.347Z,9.55
2022-09-18T02:01:27.315Z,9.56
2022-09-18T02:04:01.314Z,9.55
2022-09-18T02:06:35.172Z,9.55
2022-09-18T02:09:04.571Z,9.58
2022-09-18T02:11:35.573Z,9.53
2022-09-18T02:14:09.719Z,9.57
2022-09-18T02:17:02.272Z,9.54
2022-09-18T02:19:37.994Z,9.52
2022-09-18T02:22:10.547Z,9.52
2022-09-18T02:24:40.796Z,9.52
2022-09-18T02:27:12.378Z,9.50
2022-09-18T02:29:44.233Z,9.51
2022-09-18T02:32:13.015Z,9.51
2022-09-18T02:34:43.574Z,9.52
2022-09-18T02:37:38.121Z,9.55
2022-09-18T02:40:20.441Z,9.58
2022-09-18T02:43:00.326Z,9.57
2022-09-18T02:45:37.772Z,9.57
2022-09-18T02:48:20.682Z,9.62
2022-09-18T02:51:00.065Z,9.73
2022-09-18T02:53:32.506Z,9.69
2022-09-18T02:56:04.418Z,9.64
2022-09-18T02:58:42.720Z,9.60
2022-09-18T03:01:14.813Z,9.60
2022-09-18T03:03:43.060Z,9.56
2022-09-18T03:06:13.263Z,9.55
2022-09-18T03:08:41.587Z,9.55
2022-09-18T03:11:10.028Z,9.57
2022-09-18T03:13:38.066Z,9.56
2022-09-18T03:16:06.208Z,9.57
2022-09-18T03:18:35.691Z,9.58
2022-09-18T03:21:04.559Z,9.57
2022-09-18T03:23:34.015Z,9.57
2022-09-18T03:26:15.301Z,9.59
2022-09-18T03:28:44.159Z,9.59
2022-09-18T03:31:14.377Z,9.57
2022-09-18T03:33:43.810Z,9.60
2022-09-18T03:36:13.307Z,9.59
2022-09-18T03:38:42.473Z,9.61
2022-09-18T03:41:10.936Z,9.61
2022-09-18T03:43:41.738Z,9.61
2022-09-18T03:46:11.944Z,9.57
2022-09-18T03:48:40.083Z,9.66
2022-09-18T03:51:09.933Z,9.60
2022-09-18T03:53:37.846Z,9.59
2022-09-18T03:56:32.056Z,9.62
2022-09-18T03:59:07.310Z,9.59
2022-09-18T04:01:55.183Z,9.56
2022-09-18T04:04:29.306Z,9.58
2022-09-18T04:07:18.174Z,9.56
2022-09-18T04:10:26.502Z,9.55
2022-09-18T04:12:54.851Z,9.60
2022-09-18T04:15:28.692Z,9.56
2022-09-18T04:17:57.503Z,9.53
2022-09-18T04:20:25.837Z,9.51
2022-09-18T04:22:55.139Z,9.50
2022-09-18T04:25:23.618Z,9.50
2022-09-18T04:27:51.597Z,9.51
2022-09-18T04:30:21.227Z,9.51
2022-09-18T04:32:49.166Z,9.48
2022-09-18T04:35:19.071Z,9.54
2022-09-18T04:37:47.203Z,9.50
2022-09-18T04:40:16.635Z,9.50
2022-09-18T04:42:44.709Z,9.50
2022-09-18T04:45:12.762Z,9.50
2022-09-18T04:47:41.924Z,9.53
2022-09-18T04:50:10.921Z,9.54
2022-09-18T04:52:58.815Z,9.60
2022-09-18T04:55:29.695Z,9.56
2022-09-18T04:57:57.669Z,9.55
2022-09-18T05:00:25.629Z,9.65
2022-09-18T05:02:54.121Z,9.58
2022-09-18T05:05:25.712Z,9.58
2022-09-18T05:07:55.894Z,9.59
2022-09-18T05:10:24.123Z,9.57
2022-09-18T05:12:54.000Z,9.56
2022-09-18T05:15:22.479Z,9.59
2022-09-18T05:17:59.659Z,9.57
2022-09-18T05:20:28.206Z,9.59
2022-09-18T05:23:01.562Z,9.62
2022-09-18T05:25:31.011Z,9.67
2022-09-18T05:28:02.832Z,9.66
2022-09-18T05:30:38.376Z,9.68
2022-09-18T05:33:08.565Z,9.67
2022-09-18T05:35:40.046Z,9.66
2022-09-18T05:38:08.737Z,9.65
2022-09-18T05:40:39.592Z,9.64
2022-09-18T05:43:09.730Z,9.66
2022-09-18T05:45:38.713Z,9.70
2022-09-18T05:48:17.885Z,9.68
2022-09-18T05:50:46.831Z,9.71
2022-09-18T05:53:19.022Z,9.74
2022-09-18T05:56:11.636Z,9.75
2022-09-18T05:58:40.872Z,9.77
2022-09-18T06:01:09.396Z,9.80
2022-09-18T06:03:54.752Z,9.78
2022-09-18T06:06:24.482Z,9.81
2022-09-18T06:08:52.514Z,9.83
2022-09-18T06:11:21.647Z,9.86
2022-09-18T06:13:52.249Z,9.96
2022-09-18T06:16:20.484Z,10.01
2022-09-18T06:19:01.611Z,10.03
2022-09-18T06:21:29.584Z,10.10
2022-09-18T06:23:58.841Z,10.24
2022-09-18T06:26:42.010Z,10.29
2022-09-18T06:29:11.504Z,10.33
2022-09-18T06:31:48.481Z,10.37
2022-09-18T06:34:22.676Z,10.46
2022-09-18T06:36:53.385Z,10.58
2022-09-18T06:39:28.766Z,10.68
2022-09-18T06:42:00.365Z,10.67
2022-09-18T06:44:48.573Z,10.72
2022-09-18T06:47:18.163Z,10.93
2022-09-18T06:49:48.097Z,10.99
2022-09-18T06:52:18.144Z,11.07
2022-09-18T06:54:47.746Z,11.05
2022-09-18T06:57:31.072Z,11.23
2022-09-18T07:00:00.342Z,11.14
2022-09-18T07:02:31.490Z,11.31
2022-09-18T07:05:19.739Z,11.43
2022-09-18T07:07:48.225Z,11.37
2022-09-18T07:10:17.767Z,11.41
2022-09-18T07:12:48.816Z,11.58
2022-09-18T07:15:20.846Z,11.71
2022-09-18T07:17:48.868Z,11.89
2022-09-18T07:20:18.569Z,11.91
2022-09-18T07:22:55.417Z,11.90
2022-09-18T07:25:34.366Z,11.86
2022-09-18T07:28:07.740Z,11.87
2022-09-18T07:30:41.641Z,11.94
2022-09-18T07:33:10.819Z,12.01
2022-09-18T07:35:45.700Z,12.00
2022-09-18T07:38:16.020Z,12.04
2022-09-18T07:40:52.456Z,12.01
2022-09-18T07:43:31.115Z,12.00
2022-09-18T07:46:02.626Z,11.86
2022-09-18T07:48:33.776Z,12.09
2022-09-18T07:51:16.006Z,12.18
2022-09-18T07:53:48.709Z,12.51
2022-09-18T07:56:23.849Z,12.93
2022-09-18T07:58:52.237Z,13.17
2022-09-18T08:01:26.910Z,13.20
2022-09-18T08:03:57.461Z,13.26
2022-09-18T08:06:37.045Z,13.52
2022-09-18T08:09:20.871Z,13.76
2022-09-18T08:12:20.927Z,13.74
2022-09-18T08:15:02.348Z,13.80
2022-09-18T08:17:58.138Z,13.58
2022-09-18T08:21:09.850Z,13.52
2022-09-18T08:23:43.718Z,13.53
2022-09-18T08:26:11.670Z,13.81
2022-09-18T08:28:39.666Z,13.90
2022-09-18T08:31:08.340Z,13.79
2022-09-18T08:33:37.596Z,13.92
2022-09-18T08:36:07.071Z,14.10
2022-09-18T08:38:38.008Z,14.05
2022-09-18T08:42:01.049Z,13.87
2022-09-18T08:44:35.925Z,13.92
2022-09-18T08:47:07.264Z,13.93
2022-09-18T08:49:42.910Z,13.85
2022-09-18T08:52:16.440Z,13.83
2022-09-18T08:54:49.831Z,14.07
2022-09-18T08:57:33.838Z,14.02
2022-09-18T09:00:18.285Z,13.94
2022-09-18T09:02:54.191Z,13.96
2022-09-18T09:05:29.098Z,13.86
2022-09-18T09:08:08.688Z,13.98
2022-09-18T09:10:44.247Z,14.15
2022-09-18T09:13:44.910Z,14.25
2022-09-18T09:16:16.853Z,14.31
2022-09-18T09:18:58.650Z,14.39
2022-09-18T09:21:46.570Z,14.35
2022-09-18T09:24:30.989Z,14.53
2022-09-18T09:27:15.645Z,14.47
2022-09-18T09:30:05.249Z,14.37
2022-09-18T09:32:50.582Z,14.11
2022-09-18T09:35:44.111Z,14.18
2022-09-18T09:38:41.910Z,14.23
2022-09-18T09:41:20.675Z,14.31
2022-09-18T09:43:58.752Z,14.17
2022-09-18T09:46:47.689Z,14.28
2022-09-18T09:49:19.665Z,14.24
2022-09-18T09:51:58.667Z,14.48
2022-09-18T09:54:28.046Z,14.63
2022-09-18T09:57:04.516Z,14.59
2022-09-18T09:59:41.275Z,14.56
2022-09-18T10:02:33.250Z,14.63
2022-09-18T10:05:15.119Z,14.72
2022-09-18T10:07:50.601Z,14.73
2022-09-18T10:10:27.404Z,14.71
2022-09-18T10:13:00.839Z,14.74
2022-09-18T10:15:35.976Z,14.65
2022-09-18T10:18:16.106Z,14.58
2022-09-18T10:20:47.079Z,14.44
2022-09-18T10:23:23.965Z,14.40
2022-09-18T10:25:59.168Z,14.25
2022-09-18T10:28:29.470Z,14.29
2022-09-18T10:31:02.859Z,14.53
2022-09-18T10:33:39.517Z,14.40
2022-09-18T10:36:19.341Z,14.50
2022-09-18T10:38:47.952Z,14.59
2022-09-18T10:41:40.455Z,14.75
2022-09-18T10:44:23.837Z,14.80
2022-09-18T10:47:02.427Z,15.24
2022-09-18T10:49:33.973Z,15.72
2022-09-18T10:52:35.063Z,15.95
2022-09-18T10:55:16.977Z,16.07
2022-09-18T10:58:08.224Z,15.84
2022-09-18T11:00:39.864Z,15.60
2022-09-18T11:03:24.718Z,15.24
2022-09-18T11:05:58.373Z,15.04
2022-09-18T11:08:29.464Z,14.72
2022-09-18T11:11:04.096Z,14.48
2022-09-18T11:13:43.458Z,14.32
2022-09-18T11:16:24.200Z,14.17
2022-09-18T11:19:17.189Z,14.00
2022-09-18T11:21:47.798Z,14.09
2022-09-18T11:24:23.423Z,14.14
2022-09-18T11:26:54.665Z,14.15
2022-09-18T11:29:30.592Z,14.24
2022-09-18T11:32:06.479Z,14.25
2022-09-18T11:34:39.661Z,14.25
2022-09-18T11:37:14.794Z,14.25
2022-09-18T11:39:51.223Z,14.23
2022-09-18T11:42:19.486Z,14.31
2022-09-18T11:44:52.508Z,14.40
2022-09-18T11:47:37.442Z,14.37
2022-09-18T11:50:12.883Z,14.37
2022-09-18T11:52:45.250Z,14.26
2022-09-18T11:55:28.392Z,14.20
2022-09-18T11:58:02.220Z,14.16
2022-09-18T12:00:36.293Z,14.09
2022-09-18T12:03:17.803Z,14.07
2022-09-18T12:05:53.435Z,14.10
2022-09-18T12:08:35.690Z,13.94
2022-09-18T12:11:18.264Z,13.98
2022-09-18T12:13:59.422Z,14.03
2022-09-18T12:16:46.768Z,13.97
2022-09-18T12:19:24.003Z,13.94
2022-09-18T12:21:59.049Z,13.93
2022-09-18T12:24:27.177Z,13.96
2022-09-18T12:27:09.210Z,14.05
2022-09-18T12:29:55.745Z,13.86
2022-09-18T12:32:47.690Z,13.75
2022-09-18T12:35:27.265Z,13.61
2022-09-18T12:38:10.519Z,13.44
2022-09-18T12:40:58.585Z,13.35
2022-09-18T12:43:42.850Z,13.41
2022-09-18T12:46:20.484Z,13.50
2022-09-18T12:49:06.862Z,13.57
2022-09-18T12:51:42.085Z,13.66
2022-09-18T12:54:27.966Z,13.57
2022-09-18T12:57:10.283Z,13.62
2022-09-18T12:59:49.719Z,13.73
2022-09-18T13:02:23.487Z,13.76
2022-09-18T13:04:58.529Z,13.72
2022-09-18T13:07:31.331Z,13.76
2022-09-18T13:10:06.219Z,13.65
2022-09-18T13:12:37.664Z,13.65
2022-09-18T13:15:14.720Z,13.63
2022-09-18T13:17:48.808Z,13.66
2022-09-18T13:20:24.567Z,13.68
2022-09-18T13:22:54.442Z,13.64
2022-09-18T13:25:28.234Z,13.65
2022-09-18T13:27:57.561Z,13.74
2022-09-18T13:30:28.942Z,13.64
2022-09-18T13:32:58.526Z,13.63
2022-09-18T13:35:30.215Z,13.67
2022-09-18T13:38:15.797Z,13.70
2022-09-18T13:40:46.480Z,13.71
2022-09-18T13:43:23.505Z,13.73
2022-09-18T13:45:51.656Z,13.62
2022-09-18T13:48:27.238Z,13.69
2022-09-18T13:51:00.161Z,13.68
2022-09-18T13:54:08.823Z,13.67
2022-09-18T13:57:10.696Z,13.72
2022-09-18T13:59:50.470Z,13.69
2022-09-18T14:02:25.731Z,13.68
2022-09-18T14:05:19.424Z,13.76
2022-09-18T14:07:57.781Z,13.89
2022-09-18T14:10:32.485Z,13.85
2022-09-18T14:13:23.584Z,13.75
2022-09-18T14:15:56.656Z,13.79
2022-09-18T14:18:28.526Z,13.71
2022-09-18T14:21:12.732Z,13.85
2022-09-18T14:24:18.840Z,13.81
2022-09-18T14:27:24.675Z,13.86
2022-09-18T14:29:57.462Z,13.76
2022-09-18T14:32:27.496Z,13.75
2022-09-18T14:35:19.569Z,13.72
2022-09-18T14:37:48.162Z,13.61
2022-09-18T14:40:21.895Z,13.56
2022-09-18T14:42:50.478Z,13.52
2022-09-18T14:45:27.964Z,13.60
2022-09-18T14:47:56.279Z,13.54
2022-09-18T14:50:27.891Z,13.50
2022-09-18T14:52:56.945Z,13.51
2022-09-18T14:55:30.971Z,13.49
2022-09-18T14:58:02.892Z,13.48
2022-09-18T15:00:33.247Z,13.57
2022-09-18T15:03:04.922Z,13.56
2022-09-18T15:05:33.938Z,13.52
2022-09-18T15:08:04.995Z,13.50
2022-09-18T15:10:39.294Z,13.50
2022-09-18T15:13:10.302Z,13.46
2022-09-18T15:15:40.378Z,13.42
2022-09-18T15:18:19.543Z,13.38
2022-09-18T15:20:51.396Z,13.39
2022-09-18T15:23:21.518Z,13.44
2022-09-18T15:25:54.175Z,13.42
2022-09-18T15:28:24.148Z,13.43
2022-09-18T15:30:57.290Z,13.38
2022-09-18T15:33:27.330Z,13.32
2022-09-18T15:35:56.875Z,13.34
2022-09-18T15:38:31.159Z,13.29
2022-09-18T15:41:32.891Z,13.28
2022-09-18T15:44:01.340Z,13.28
2022-09-18T15:46:31.882Z,13.33
2022-09-18T15:49:03.107Z,13.24
2022-09-18T15:51:32.286Z,13.30
2022-09-18T15:54:23.591Z,13.24
2022-09-18T15:56:54.557Z,13.12
2022-09-18T15:59:29.706Z,13.09
2022-09-18T16:01:58.860Z,13.08
2022-09-18T16:04:32.352Z,13.15
2022-09-18T16:07:03.850Z,13.06
2022-09-18T16:09:41.727Z,12.98
2022-09-18T16:12:39.779Z,12.94
2022-09-18T16:15:22.134Z,12.98
2022-09-18T16:18:01.868Z,12.90
2022-09-18T16:20:34.468Z,12.88
2022-09-18T16:23:15.337Z,12.85
2022-09-18T16:25:44.499Z,12.83
2022-09-18T16:28:23.620Z,12.80
2022-09-18T16:30:52.095Z,12.68
2022-09-18T16:33:22.618Z,12.57
2022-09-18T16:35:56.760Z,12.56
2022-09-18T16:38:24.752Z,12.51
2022-09-18T16:40:52.893Z,12.51
2022-09-18T16:43:22.331Z,12.56
2022-09-18T16:45:51.101Z,12.48
2022-09-18T16:48:19.873Z,12.43
2022-09-18T16:50:48.518Z,12.36
2022-09-18T16:53:16.689Z,12.31
2022-09-18T16:55:48.598Z,12.20
2022-09-18T16:58:19.431Z,12.15
2022-09-18T17:00:49.122Z,12.10
2022-09-18T17:03:18.146Z,12.11
2022-09-18T17:05:46.632Z,11.99
2022-09-18T17:08:14.569Z,11.93
2022-09-18T17:10:45.178Z,11.87
2022-09-18T17:13:13.774Z,11.80
2022-09-18T17:15:41.826Z,11.73
2022-09-18T17:18:11.083Z,11.67
2022-09-18T17:20:39.439Z,11.59
2022-09-18T17:23:08.092Z,11.50
2022-09-18T17:25:36.790Z,11.40
2022-09-18T17:28:04.926Z,11.35
2022-09-18T17:30:33.169Z,11.33
2022-09-18T17:33:01.208Z,11.25
2022-09-18T17:35:30.567Z,11.19
2022-09-18T17:37:58.433Z,11.12
2022-09-18T17:40:26.655Z,11.02
2022-09-18T17:42:54.835Z,10.97
2022-09-18T17:45:22.786Z,10.92
2022-09-18T17:47:52.070Z,10.91
2022-09-18T17:50:21.150Z,10.89
2022-09-18T17:52:50.441Z,10.86
2022-09-18T17:55:18.674Z,10.84
2022-09-18T17:57:46.648Z,10.84
2022-09-18T18:00:15.661Z,10.82
2022-09-18T18:02:43.683Z,10.79
2022-09-18T18:05:11.663Z,10.79
2022-09-18T18:07:39.632Z,10.80
2022-09-18T18:10:09.912Z,10.80
2022-09-18T18:12:37.936Z,10.80
2022-09-18T18:15:06.941Z,10.77
2022-09-18T18:17:35.850Z,10.76
2022-09-18T18:20:05.584Z,10.75
2022-09-18T18:22:33.552Z,10.75
2022-09-18T18:25:01.595Z,10.77
2022-09-18T18:27:33.384Z,10.76
2022-09-18T18:30:01.383Z,10.77
2022-09-18T18:32:29.273Z,10.75
2022-09-18T18:34:57.731Z,10.74
2022-09-18T18:37:25.722Z,10.75
2022-09-18T18:39:53.738Z,10.72
2022-09-18T18:42:21.958Z,10.66
2022-09-18T18:44:51.217Z,10.60
2022-09-18T18:47:20.347Z,10.56
2022-09-18T18:49:48.719Z,10.54
2022-09-18T18:52:16.859Z,10.57
2022-09-18T18:54:45.820Z,10.57
2022-09-18T18:57:13.865Z,10.58
2022-09-18T18:59:43.721Z,10.56
2022-09-18T19:02:13.098Z,10.57
2022-09-18T19:04:43.012Z,10.58
2022-09-18T19:07:11.018Z,10.59
2022-09-18T19:09:39.135Z,10.59
2022-09-18T19:12:07.495Z,10.59
2022-09-18T19:14:37.876Z,10.61
2022-09-18T19:17:06.352Z,10.62
2022-09-18T19:19:35.722Z,10.62
2022-09-18T19:22:03.692Z,10.62
2022-09-18T19:24:31.870Z,10.63
2022-09-18T19:26:59.912Z,10.60
2022-09-18T19:29:30.461Z,10.61
2022-09-18T19:32:00.231Z,10.62
2022-09-18T19:34:28.134Z,10.63
2022-09-18T19:36:57.956Z,10.63
2022-09-18T19:39:26.280Z,10.62
2022-09-18T19:41:59.173Z,10.72
2022-09-18T19:44:32.664Z,10.92
2022-09-18T19:47:03.099Z,10.77
2022-09-18T19:49:34.533Z,10.72
2022-09-18T19:52:05.354Z,10.66
2022-09-18T19:54:33.254Z,10.61
2022-09-18T19:57:01.210Z,10.71
2022-09-18T19:59:29.324Z,10.72
2022-09-18T20:01:57.428Z,10.69
2022-09-18T20:04:25.495Z,10.75
2022-09-18T20:06:53.395Z,10.75
2022-09-18T20:09:22.740Z,10.67
2022-09-18T20:11:50.770Z,10.74
2022-09-18T20:14:18.899Z,10.64
2022-09-18T20:16:46.928Z,10.49
2022-09-18T20:19:14.890Z,10.43
2022-09-18T20:21:42.960Z,10.04
2022-09-18T20:24:11.013Z,9.78
2022-09-18T20:26:40.276Z,9.60
2022-09-18T20:29:08.277Z,9.44
2022-09-18T20:31:36.994Z,9.50
2022-09-18T20:34:05.784Z,9.45
2022-09-18T20:36:34.738Z,9.24
2022-09-18T20:39:03.593Z,9.25
2022-09-18T20:41:31.784Z,9.17
2022-09-18T20:44:04.835Z,9.08
2022-09-18T20:46:37.138Z,9.08
2022-09-18T20:49:06.279Z,9.08
2022-09-18T20:51:35.891Z,9.01
2022-09-18T20:54:08.073Z,8.98
2022-09-18T20:56:41.183Z,9.04
2022-09-18T20:59:12.302Z,9.05
2022-09-18T21:01:41.805Z,8.98
2022-09-18T21:04:17.198Z,8.95
2022-09-18T21:06:46.955Z,8.94
2022-09-18T21:09:15.781Z,8.95
2022-09-18T21:11:44.761Z,8.89
2022-09-18T21:14:16.325Z,8.89
2022-09-18T21:16:44.891Z,8.87
2022-09-18T21:19:14.275Z,8.86
2022-09-18T21:21:42.348Z,8.85
2022-09-18T21:24:10.876Z,8.82
2022-09-18T21:26:41.000Z,8.79
2022-09-18T21:29:13.602Z,8.75
2022-09-18T21:31:43.521Z,8.74
2022-09-18T21:34:13.217Z,8.78
2022-09-18T21:36:43.238Z,8.78
2022-09-18T21:39:12.767Z,8.79
2022-09-18T21:41:45.726Z,8.79
2022-09-18T21:44:15.584Z,8.81
2022-09-18T21:46:45.741Z,8.78
2022-09-18T21:49:15.939Z,8.79
2022-09-18T21:51:44.408Z,8.77
2022-09-18T21:54:15.490Z,8.75
2022-09-18T21:56:44.033Z,8.77
2022-09-18T21:59:12.675Z,8.74
2022-09-18T22:01:42.668Z,8.73
2022-09-18T22:04:12.338Z,8.67
2022-09-18T22:06:41.588Z,8.63
2022-09-18T22:09:11.295Z,8.58
2022-09-18T22:11:39.877Z,8.54
2022-09-18T22:14:10.178Z,8.41
2022-09-18T22:16:39.365Z,8.37
2022-09-18T22:19:09.115Z,8.21
2022-09-18T22:21:40.528Z,8.08
2022-09-18T22:24:10.214Z,7.94
2022-09-18T22:26:40.049Z,7.80
2022-09-18T22:29:08.874Z,7.68
2022-09-18T22:31:38.367Z,7.56
2022-09-18T22:34:07.521Z,7.51
2022-09-18T22:36:35.610Z,7.40
2022-09-18T22:39:04.964Z,7.26
2022-09-18T22:41:32.877Z,7.18
2022-09-18T22:44:00.774Z,7.11
2022-09-18T22:46:28.807Z,7.01
2022-09-18T22:48:56.770Z,7.03
2022-09-18T22:51:27.456Z,6.96
2022-09-18T22:53:57.201Z,6.89
2022-09-18T22:56:28.821Z,6.84
2022-09-18T22:58:57.903Z,6.78
2022-09-18T23:01:28.830Z,6.74
2022-09-18T23:03:58.039Z,6.74
2022-09-18T23:06:27.912Z,6.68
2022-09-18T23:08:57.305Z,6.63
2022-09-18T23:11:28.419Z,6.62
2022-09-18T23:13:58.585Z,6.60
2022-09-18T23:16:29.169Z,6.56
2022-09-18T23:18:59.267Z,6.53
2022-09-18T23:21:27.793Z,6.48
2022-09-18T23:23:57.456Z,6.43
2022-09-18T23:26:28.873Z,6.36
2022-09-18T23:28:59.003Z,6.37
2022-09-18T23:31:29.134Z,6.52
2022-09-18T23:33:58.792Z,6.59
2022-09-18T23:36:28.916Z,6.59
2022-09-18T23:38:59.336Z,6.61
2022-09-18T23:41:30.685Z,6.58
2022-09-18T23:43:58.584Z,6.54
2022-09-18T23:46:26.584Z,6.49
2022-09-18T23:48:55.692Z,6.45
2022-09-18T23:51:24.862Z,6.44
2022-09-18T23:53:53.446Z,6.40
2022-09-18T23:56:23.448Z,6.42
2022-09-18T23:58:55.367Z,6.50
